Time;durP1;ratioP1;P1;durP2;ratioP2;P2;SDS_P1;SDS_P2;PMS_P1;PMS_P2;Temp;Humidity;BMP_temperature;BMP_pressure;BME280_temperature;BME280_humidity;BME280_pressure;Samples;Min_cycle;Max_cycle;Signal;HPM_P1;HPM_P2
2022/06/14 00:02:31;;;;;;;;;;;;;;;21.79;82.35;96866.06;600331;236;66828;-68
2022/06/14 00:04:59;;;;;;;;;;;;;;;21.78;82.38;96861.80;600362;236;67920;-68
2022/06/14 00:07:26;;;;;;;;;;;;;;;21.78;82.34;96859.13;600303;236;64881;-68
2022/06/14 00:09:54;;;;;;;;;;;;;;;21.79;82.38;96854.56;600299;236;67025;-68
2022/06/14 00:12:21;;;;;;;;;;;;;;;21.78;82.40;96851.09;600352;236;66324;-68
2022/06/14 00:14:49;;;;;;;;;;;;;;;21.79;82.44;96849.22;600303;236;64920;-68
2022/06/14 00:17:16;;;;;;;;;;;;;;;21.79;82.44;96846.54;600335;236;66733;-71
2022/06/14 00:19:44;;;;;;;;;;;;;;;21.79;82.37;96846.54;601727;236;64867;-71
2022/06/14 00:22:12;;;;;;;;;;;;;;;21.78;82.36;96847.63;601784;236;62932;-71
2022/06/14 00:24:40;;;;;;;;;;;;;;;21.78;82.38;96845.75;601776;236;66765;-71
2022/06/14 00:27:07;;;;;;;;;;;;;;;21.78;82.42;96848.42;601745;236;66888;-71
2022/06/14 00:29:34;;;;;;;;;;;;;;;21.78;82.42;96848.42;601779;236;65138;-71
2022/06/14 00:32:02;;;;;;;;;;;;;;;21.79;82.48;96843.87;601764;236;66938;-71
2022/06/14 00:34:29;;;;;;;;;;;;;;;21.79;82.44;96855.36;601774;236;67013;-71
2022/06/14 00:36:57;;;;;;;;;;;;;;;21.79;82.42;96855.36;601756;236;65012;-68
2022/06/14 00:39:25;;;;;;;;;;;;;;;21.79;82.43;96860.70;601782;236;64707;-68
2022/06/14 00:41:54;;;;;;;;;;;;;;;21.79;82.42;96866.06;601767;236;67038;-68
2022/06/14 00:44:23;;;;;;;;;;;;;;;21.78;82.52;96869.82;601732;236;62927;-68
2022/06/14 00:47:01;;;;;;;;;;;;;;;21.79;82.46;96875.97;601761;236;67590;-68
2022/06/14 00:49:30;;;;;;;;;;;;;;;21.78;82.58;96875.17;601702;236;66929;-69
2022/06/14 00:52:08;;;;;;;;;;;;;;;21.78;82.48;96877.84;601692;236;64800;-68
2022/06/14 00:54:37;;;;;;;;;;;;;;;21.79;82.54;96876.76;601724;236;67086;-71
2022/06/14 00:57:18;;;;;;;;;;;;;;;21.79;82.57;96878.64;601785;236;66921;-71
2022/06/14 00:59:47;;;;;;;;;;;;;;;21.78;82.55;96871.70;601714;236;64861;-71
2022/06/14 01:02:15;;;;;;;;;;;;;;;21.78;82.63;96877.84;601774;236;67078;-73
2022/06/14 01:04:43;;;;;;;;;;;;;;;21.78;82.58;96875.17;601686;236;64865;-72
2022/06/14 01:07:13;;;;;;;;;;;;;;;21.77;82.61;96870.91;601766;236;64971;-71
2022/06/14 01:09:44;;;;;;;;;;;;;;;21.78;82.59;96875.17;601726;236;67138;-71
2022/06/14 01:12:13;;;;;;;;;;;;;;;21.78;82.67;96879.73;601793;236;64908;-71
2022/06/14 01:14:42;;;;;;;;;;;;;;;21.78;82.74;96874.38;601763;236;62928;-71
2022/06/14 01:17:11;;;;;;;;;;;;;;;21.78;82.77;96869.03;601667;234;65072;-72
2022/06/14 01:19:39;;;;;;;;;;;;;;;21.77;82.83;96870.91;600312;236;67013;-72
2022/06/14 01:22:08;;;;;;;;;;;;;;;21.77;82.78;96873.58;600307;236;63848;-71
2022/06/14 01:24:37;;;;;;;;;;;;;;;21.77;82.71;96870.91;600317;236;67092;-71
2022/06/14 01:27:07;;;;;;;;;;;;;;;21.78;82.76;96872.50;600334;236;64760;-71
2022/06/14 01:29:37;;;;;;;;;;;;;;;21.77;82.74;96878.94;600283;236;62961;-71
2022/06/14 01:32:06;;;;;;;;;;;;;;;21.78;82.80;96874.38;600253;236;67498;-71
2022/06/14 01:34:34;;;;;;;;;;;;;;;21.77;82.78;96876.27;600283;236;65448;-71
2022/06/14 01:37:02;;;;;;;;;;;;;;;21.77;82.78;96873.58;600335;236;65037;-71
2022/06/14 01:39:30;;;;;;;;;;;;;;;21.77;82.74;96873.58;600322;236;67240;-71
2022/06/14 01:41:59;;;;;;;;;;;;;;;21.78;82.74;96871.70;600294;236;67098;-71
2022/06/14 01:44:31;;;;;;;;;;;;;;;21.77;82.68;96870.91;600281;236;63078;-71
2022/06/14 01:47:15;;;;;;;;;;;;;;;21.78;82.79;96880.52;600247;235;67122;-68
2022/06/14 01:52:34;;;;;;;;;;;;;;;21.76;82.79;96882.67;600299;236;65148;-72
2022/06/14 01:55:09;;;;;;;;;;;;;;;21.77;82.70;96883.46;600342;236;66765;-72
2022/06/14 01:57:38;;;;;;;;;;;;;;;21.76;82.78;96882.67;600283;235;64549;-71
2022/06/14 02:00:13;;;;;;;;;;;;;;;21.77;82.79;96889.63;600238;236;65335;-69
2022/06/14 02:04:37;;;;;;;;;;;;;;;21.76;82.88;96885.34;600272;236;65299;-71
2022/06/14 02:05:31;;;;;;;;;;;;;;;21.77;82.95;96880.78;599295;236;64914;-72
2022/06/14 02:08:00;;;;;;;;;;;;;;;21.77;83.02;96888.81;600262;236;65807;-70
2022/06/14 02:10:41;;;;;;;;;;;;;;;21.77;82.96;96888.81;600249;236;67213;-70
2022/06/14 02:13:10;;;;;;;;;;;;;;;21.77;82.95;96889.63;600345;236;66920;-70
2022/06/14 02:15:51;;;;;;;;;;;;;;;21.77;82.95;96894.16;600261;236;65111;-70
2022/06/14 02:18:26;;;;;;;;;;;;;;;21.77;82.92;96894.16;600783;235;67302;-70
2022/06/14 02:20:55;;;;;;;;;;;;;;;21.76;82.90;96893.37;601714;234;67088;-70
2022/06/14 02:23:24;;;;;;;;;;;;;;;21.76;83.01;96888.02;601683;234;64904;-70
2022/06/14 02:25:53;;;;;;;;;;;;;;;21.76;82.94;96887.23;601728;236;65102;-70
2022/06/14 02:28:25;;;;;;;;;;;;;;;21.76;83.03;96892.58;601728;234;64974;-70
2022/06/14 02:30:58;;;;;;;;;;;;;;;21.75;83.06;96889.11;601518;236;63068;-70
2022/06/14 02:33:36;;;;;;;;;;;;;;;21.76;83.11;96888.02;601654;236;64678;-70
2022/06/14 02:36:06;;;;;;;;;;;;;;;21.76;83.00;96888.02;601725;236;67185;-70
2022/06/14 02:38:41;;;;;;;;;;;;;;;21.77;83.04;96888.81;601739;236;62806;-70
2022/06/14 02:41:10;;;;;;;;;;;;;;;21.76;83.10;96888.02;601739;236;64665;-70
2022/06/14 02:43:39;;;;;;;;;;;;;;;21.77;83.18;96883.46;601494;236;64919;-70
2022/06/14 02:46:09;;;;;;;;;;;;;;;21.76;83.20;96885.34;601668;236;62880;-70
2022/06/14 02:48:41;;;;;;;;;;;;;;;21.77;83.13;96888.81;601746;236;64681;-70
2022/06/14 02:51:09;;;;;;;;;;;;;;;21.76;83.10;96890.70;601617;236;67517;-70
2022/06/14 02:53:44;;;;;;;;;;;;;;;21.76;83.11;96892.58;601712;234;62761;-70
2022/06/14 02:56:30;;;;;;;;;;;;;;;21.76;83.12;96889.90;601789;236;67026;-70
2022/06/14 02:59:11;;;;;;;;;;;;;;;21.76;83.02;96893.37;601776;236;67119;-70
2022/06/14 03:01:49;;;;;;;;;;;;;;;21.76;83.08;96893.37;601694;234;65289;-71
2022/06/14 03:04:18;;;;;;;;;;;;;;;21.76;83.19;96889.90;601663;236;64879;-70
2022/06/14 03:06:53;;;;;;;;;;;;;;;21.75;83.07;96897.13;601764;236;65090;-70
2022/06/14 03:09:22;;;;;;;;;;;;;;;21.75;83.09;96891.78;601705;234;62770;-70
2022/06/14 03:12:08;;;;;;;;;;;;;;;21.76;83.08;96895.25;601716;236;66910;-70
2022/06/14 03:14:43;;;;;;;;;;;;;;;21.75;83.05;96896.34;601756;236;65023;-70
2022/06/14 03:17:18;;;;;;;;;;;;;;;21.75;83.08;96901.69;601750;236;65157;-71
2022/06/14 03:19:53;;;;;;;;;;;;;;;21.75;83.07;96902.48;601741;236;65365;-71
2022/06/14 03:22:22;;;;;;;;;;;;;;;21.75;83.16;96902.48;601638;236;65044;-71
2022/06/14 03:24:52;;;;;;;;;;;;;;;21.76;83.17;96905.95;601719;234;65053;-71
2022/06/14 03:27:22;;;;;;;;;;;;;;;21.74;83.17;96908.89;601482;236;67197;-71
2022/06/14 03:29:59;;;;;;;;;;;;;;;21.75;83.22;96907.04;601711;234;67166;-70
2022/06/14 03:32:28;;;;;;;;;;;;;;;21.75;83.16;96905.16;601748;236;67023;-71
2022/06/14 03:34:57;;;;;;;;;;;;;;;21.75;83.26;96905.16;601705;234;64920;-71
2022/06/14 03:37:25;;;;;;;;;;;;;;;21.75;83.22;96896.34;601711;236;65030;-71
2022/06/14 03:40:00;;;;;;;;;;;;;;;21.75;83.25;96896.34;601768;236;62844;-71
2022/06/14 03:42:28;;;;;;;;;;;;;;;21.75;83.18;96899.80;601613;236;65168;-69
2022/06/14 03:44:55;;;;;;;;;;;;;;;21.75;83.22;96897.13;601830;236;67176;-68
2022/06/14 03:47:24;;;;;;;;;;;;;;;21.75;83.25;96896.34;601743;236;65074;-68
2022/06/14 03:49:53;;;;;;;;;;;;;;;21.74;83.23;96895.52;601730;236;64703;-68
2022/06/14 03:52:28;;;;;;;;;;;;;;;21.75;83.13;96896.34;601764;236;64838;-68
2022/06/14 03:55:12;;;;;;;;;;;;;;;21.74;83.17;96906.21;601776;236;63003;-68
2022/06/14 03:57:54;;;;;;;;;;;;;;;21.74;83.13;96898.19;601657;234;67138;-68
2022/06/14 04:00:29;;;;;;;;;;;;;;;21.75;83.41;96901.69;601789;236;66652;-67
2022/06/14 04:02:58;;;;;;;;;;;;;;;21.74;83.36;96900.86;601828;236;62931;-67
2022/06/14 04:05:43;;;;;;;;;;;;;;;21.73;83.35;96902.75;601722;234;67199;-66
2022/06/14 04:08:15;;;;;;;;;;;;;;;21.74;83.29;96906.21;601718;236;67474;-67
2022/06/14 04:10:44;;;;;;;;;;;;;;;21.74;83.25;96908.89;601754;236;65257;-67
2022/06/14 04:13:26;;;;;;;;;;;;;;;21.73;83.29;96909.98;601769;236;67200;-66
2022/06/14 04:15:53;;;;;;;;;;;;;;;21.74;83.26;96911.56;601681;236;67068;-67
2022/06/14 04:18:40;;;;;;;;;;;;;;;21.73;83.26;96912.66;601742;236;65626;-67
2022/06/14 04:21:27;;;;;;;;;;;;;;;21.73;83.25;96910.77;601820;236;65174;-68
2022/06/14 04:24:03;;;;;;;;;;;;;;;21.74;83.24;96911.56;601723;234;66955;-67
2022/06/14 04:26:35;;;;;;;;;;;;;;;21.74;83.23;96916.91;601809;236;65407;-66
2022/06/14 04:29:04;;;;;;;;;;;;;;;21.74;83.26;96916.91;601645;236;66745;-66
2022/06/14 04:31:33;;;;;;;;;;;;;;;21.73;83.15;96920.67;601731;234;66963;-67
2022/06/14 04:34:08;;;;;;;;;;;;;;;21.73;83.21;96926.81;601723;234;65049;-67
2022/06/14 04:36:36;;;;;;;;;;;;;;;21.73;83.19;96926.02;601755;236;67232;-67
2022/06/14 04:39:09;;;;;;;;;;;;;;;21.73;83.24;96924.14;601773;236;63213;-67
2022/06/14 04:41:38;;;;;;;;;;;;;;;21.73;83.15;96920.67;601616;236;62956;-67
2022/06/14 04:44:22;;;;;;;;;;;;;;;21.73;83.19;96926.81;601744;234;64797;-67
2022/06/14 04:46:53;;;;;;;;;;;;;;;21.74;83.25;96927.61;601735;234;64754;-68
2022/06/14 04:49:32;;;;;;;;;;;;;;;21.72;83.15;96922.55;601730;236;65146;-68
2022/06/14 04:52:00;;;;;;;;;;;;;;;21.73;83.23;96924.14;601750;236;64640;-68
2022/06/14 04:54:29;;;;;;;;;;;;;;;21.74;83.34;96924.94;601747;236;65003;-68
2022/06/14 04:56:59;;;;;;;;;;;;;;;21.73;83.27;96936.72;601723;234;62982;-68
2022/06/14 04:59:28;;;;;;;;;;;;;;;21.73;83.29;96934.05;601753;236;65096;-68
2022/06/14 05:01:57;;;;;;;;;;;;;;;21.73;83.35;96936.72;601457;236;64928;-68
2022/06/14 05:04:36;;;;;;;;;;;;;;;21.72;83.33;96940.48;601620;236;62764;-68
2022/06/14 05:07:07;;;;;;;;;;;;;;;21.73;83.33;96948.22;601780;236;64702;-67
2022/06/14 05:09:52;;;;;;;;;;;;;;;21.73;83.32;96936.72;601702;236;67892;-68
2022/06/14 05:12:23;;;;;;;;;;;;;;;21.72;83.34;96946.63;601719;234;62803;-69
2022/06/14 05:14:52;;;;;;;;;;;;;;;21.73;83.28;96950.09;601698;236;64921;-68
2022/06/14 05:17:22;;;;;;;;;;;;;;;21.73;83.26;96956.24;601749;236;64374;-68
2022/06/14 05:20:01;;;;;;;;;;;;;;;21.72;83.29;96948.51;601750;236;64927;-68
2022/06/14 05:22:33;;;;;;;;;;;;;;;21.73;83.29;96952.77;601169;236;67041;-67
2022/06/14 05:25:01;;;;;;;;;;;;;;;21.72;83.40;96957.33;601706;236;67292;-68
2022/06/14 05:27:45;;;;;;;;;;;;;;;21.72;83.39;96951.19;601639;236;64852;-68
2022/06/14 05:30:18;;;;;;;;;;;;;;;21.72;83.39;96943.95;601728;236;64839;-67
2022/06/14 05:32:53;;;;;;;;;;;;;;;21.71;83.43;96950.36;601744;236;64785;-68
2022/06/14 05:35:37;;;;;;;;;;;;;;;21.72;83.44;96951.19;601720;234;64915;-68
2022/06/14 05:38:12;;;;;;;;;;;;;;;21.72;83.47;96948.51;601757;236;67106;-68
2022/06/14 05:41:00;;;;;;;;;;;;;;;21.72;83.54;96951.19;601683;236;67073;-68
2022/06/14 05:43:36;;;;;;;;;;;;;;;21.72;83.51;96957.33;601719;236;65190;-68
2022/06/14 05:46:05;;;;;;;;;;;;;;;21.72;83.47;96951.19;601698;236;66829;-68
2022/06/14 05:48:34;;;;;;;;;;;;;;;21.73;83.60;96950.09;601710;236;64662;-68
2022/06/14 05:51:03;;;;;;;;;;;;;;;21.72;83.66;96951.19;601710;236;63677;-68
2022/06/14 05:53:47;;;;;;;;;;;;;;;21.71;83.63;96949.56;601687;236;67356;-68
2022/06/14 05:56:22;;;;;;;;;;;;;;;21.72;83.72;96951.19;601473;236;64672;-69
2022/06/14 05:59:06;;;;;;;;;;;;;;;21.72;83.56;96951.98;601321;235;65400;-69
2022/06/14 06:01:38;;;;;;;;;;;;;;;21.72;83.54;96948.51;601697;236;64976;-69
2022/06/14 06:04:16;;;;;;;;;;;;;;;21.72;83.35;96954.66;601493;236;67147;-68
2022/06/14 06:06:48;;;;;;;;;;;;;;;21.72;83.25;96946.63;601613;234;65107;-65
2022/06/14 06:09:29;;;;;;;;;;;;;;;21.72;83.98;96953.86;601752;236;64879;-68
2022/06/14 06:11:59;;;;;;;;;;;;;;;21.70;83.73;96954.13;601546;236;67060;-68
2022/06/14 06:14:27;;;;;;;;;;;;;;;21.70;84.32;96956.00;604440;232;65156;-68
2022/06/14 06:17:05;;;;;;;;;;;;;;;21.69;84.24;96960.56;609672;232;67062;-68
2022/06/14 06:19:40;;;;;;;;;;;;;;;21.70;84.10;96964.03;612693;231;64844;-67
2022/06/14 06:22:10;;;;;;;;;;;;;;;21.70;83.70;96958.68;613072;231;63089;-67
2022/06/14 06:24:39;;;;;;;;;;;;;;;21.71;82.74;96960.27;613204;231;67222;-67
2022/06/14 06:27:08;;;;;;;;;;;;;;;21.72;82.54;96962.67;613125;231;67045;-67
2022/06/14 06:29:43;;;;;;;;;;;;;;;21.75;83.40;96960.53;613270;231;64857;-68
2022/06/14 06:32:11;;;;;;;;;;;;;;;21.75;83.35;96965.88;613105;231;67130;-65
2022/06/14 06:34:41;;;;;;;;;;;;;;;21.75;83.54;96958.66;613252;231;66829;-69
2022/06/14 06:37:10;;;;;;;;;;;;;;;21.75;83.65;96964.00;613247;231;65043;-68
2022/06/14 06:39:39;;;;;;;;;;;;;;;21.77;82.25;96966.38;613061;231;67783;-68
2022/06/14 06:42:11;;;;;;;;;;;;;;;21.78;83.41;96959.97;613130;231;67227;-68
2022/06/14 06:44:40;;;;;;;;;;;;;;;21.78;83.36;96959.97;613285;231;64948;-69
2022/06/14 06:47:18;;;;;;;;;;;;;;;21.78;83.44;96963.45;613038;231;67139;-68
2022/06/14 06:50:04;;;;;;;;;;;;;;;21.78;83.38;96960.77;613071;231;66772;-68
2022/06/14 06:52:36;;;;;;;;;;;;;;;21.78;83.35;96968.80;613231;231;64858;-69
2022/06/14 06:55:05;;;;;;;;;;;;;;;21.79;83.35;96967.70;613109;231;68001;-69
2022/06/14 06:57:34;;;;;;;;;;;;;;;21.79;83.38;96969.59;613102;231;66892;-68
2022/06/14 07:00:04;;;;;;;;;;;;;;;21.80;83.37;96971.17;613202;231;64913;-68
2022/06/14 07:02:33;;;;;;;;;;;;;;;21.79;83.41;96973.06;613258;231;66870;-67
2022/06/14 07:05:05;;;;;;;;;;;;;;;21.79;83.65;96973.06;613160;231;67220;-66
2022/06/14 07:07:40;;;;;;;;;;;;;;;21.79;83.38;96966.91;613211;231;62792;-70
2022/06/14 07:10:21;;;;;;;;;;;;;;;21.79;83.26;96970.38;612725;231;67319;-68
2022/06/14 07:12:50;;;;;;;;;;;;;;;21.80;83.25;96971.17;613071;231;64851;-68
2022/06/14 07:15:19;;;;;;;;;;;;;;;21.79;83.20;96970.38;613303;231;64800;-68
2022/06/14 07:17:54;;;;;;;;;;;;;;;21.79;83.12;96978.41;611927;231;64811;-68
2022/06/14 07:20:40;;;;;;;;;;;;;;;21.79;83.12;96975.73;607439;233;64717;-68
2022/06/14 07:23:12;;;;;;;;;;;;;;;21.80;83.08;96977.35;607366;233;65135;-67
2022/06/14 07:25:41;;;;;;;;;;;;;;;21.81;83.09;96975.47;607310;233;67015;-68
2022/06/14 07:28:22;;;;;;;;;;;;;;;21.80;83.13;96974.67;606659;233;66997;-70
2022/06/14 07:30:52;;;;;;;;;;;;;;;21.80;83.05;96982.70;607030;233;62897;-65
2022/06/14 07:33:21;;;;;;;;;;;;;;;21.80;83.05;96985.38;607157;233;67073;-69
2022/06/14 07:35:49;;;;;;;;;;;;;;;21.80;83.01;96976.52;607377;233;67112;-66
2022/06/14 07:38:21;;;;;;;;;;;;;;;21.81;82.98;96980.81;607291;233;62766;-66
2022/06/14 07:40:53;;;;;;;;;;;;;;;21.80;82.99;96980.02;607382;233;66993;-70
2022/06/14 07:43:26;;;;;;;;;;;;;;;21.81;82.99;96976.27;607352;233;64886;-67
2022/06/14 07:45:54;;;;;;;;;;;;;;;21.80;82.91;96988.05;607391;233;64847;-68
2022/06/14 07:48:24;;;;;;;;;;;;;;;21.81;82.83;96986.96;607240;233;66987;-67
2022/06/14 07:50:58;;;;;;;;;;;;;;;21.81;82.77;96978.14;607059;233;64597;-68
2022/06/14 07:53:43;;;;;;;;;;;;;;;21.80;82.63;96980.02;606765;233;62848;-68
2022/06/14 07:56:12;;;;;;;;;;;;;;;21.81;82.52;96984.29;607412;233;67034;-68
2022/06/14 07:58:47;;;;;;;;;;;;;;;21.81;82.51;96986.96;607283;233;65252;-68
2022/06/14 08:01:16;;;;;;;;;;;;;;;21.82;82.50;96987.76;607365;233;65268;-67
2022/06/14 08:03:48;;;;;;;;;;;;;;;21.81;82.43;96989.64;607357;233;67016;-68
2022/06/14 08:06:20;;;;;;;;;;;;;;;21.82;82.42;96985.08;607327;233;64795;-68
2022/06/14 08:08:49;;;;;;;;;;;;;;;21.81;82.39;96984.29;607381;233;62628;-68
2022/06/14 08:11:21;;;;;;;;;;;;;;;21.82;82.40;96988.55;607344;233;65749;-68
2022/06/14 08:13:50;;;;;;;;;;;;;;;21.82;82.46;96987.76;607198;233;64913;-68
2022/06/14 08:16:19;;;;;;;;;;;;;;;21.82;82.44;96987.76;607344;233;62905;-68
2022/06/14 08:18:48;;;;;;;;;;;;;;;21.82;82.42;96985.88;609634;232;67712;-68
2022/06/14 08:21:20;;;;;;;;;;;;;;;21.82;82.43;96983.20;611163;232;67077;-68
2022/06/14 08:23:49;;;;;;;;;;;;;;;21.84;82.40;96982.94;611272;232;64865;-68
2022/06/14 08:26:20;;;;;;;;;;;;;;;21.83;82.39;96984.81;611259;232;67586;-68
2022/06/14 08:28:49;;;;;;;;;;;;;;;21.83;82.45;96990.17;611125;232;66935;-68
2022/06/14 08:31:19;;;;;;;;;;;;;;;21.83;82.45;96992.05;611292;232;63758;-68
2022/06/14 08:33:48;;;;;;;;;;;;;;;21.83;82.52;97000.87;611215;232;64946;-68
2022/06/14 08:36:17;;;;;;;;;;;;;;;21.83;82.54;96995.52;610931;232;64811;-68
2022/06/14 08:38:46;;;;;;;;;;;;;;;21.83;82.59;97000.08;611209;232;62837;-64
2022/06/14 08:41:24;;;;;;;;;;;;;;;21.83;82.72;97000.87;610890;232;64564;-66
2022/06/14 08:43:56;;;;;;;;;;;;;;;21.84;82.49;96994.44;611359;232;64749;-68
2022/06/14 08:46:31;;;;;;;;;;;;;;;21.85;82.27;96997.90;611326;232;70766;-68
2022/06/14 08:49:06;;;;;;;;;;;;;;;21.85;82.55;97005.92;610992;232;67004;-68
2022/06/14 08:51:34;;;;;;;;;;;;;;;21.85;82.60;97004.08;611227;232;64570;-68
2022/06/14 08:54:15;;;;;;;;;;;;;;;21.85;82.67;97003.25;611258;232;64920;-67
2022/06/14 08:56:54;;;;;;;;;;;;;;;21.85;82.74;96997.90;610862;232;64344;-67
2022/06/14 08:59:26;;;;;;;;;;;;;;;21.84;82.74;97007.02;611287;232;64576;-69
2022/06/14 09:02:12;;;;;;;;;;;;;;;21.85;82.76;97013.95;611006;232;62727;-70
2022/06/14 09:04:44;;;;;;;;;;;;;;;21.84;82.73;97010.48;611393;232;66748;-68
2022/06/14 09:07:29;;;;;;;;;;;;;;;21.85;82.76;96998.73;611321;232;66775;-69
2022/06/14 09:10:01;;;;;;;;;;;;;;;21.84;82.80;97002.45;611266;232;62676;-68
2022/06/14 09:12:31;;;;;;;;;;;;;;;21.85;82.76;96997.90;611027;232;64863;-69
2022/06/14 09:15:09;;;;;;;;;;;;;;;21.84;82.77;96996.31;610813;232;68168;-76
2022/06/14 09:17:55;;;;;;;;;;;;;;;21.84;82.75;96996.31;611150;232;65324;-76
2022/06/14 09:20:30;;;;;;;;;;;;;;;21.84;82.77;96991.75;611323;232;64862;-77
2022/06/14 09:23:05;;;;;;;;;;;;;;;21.84;82.70;96994.44;611124;232;66938;-72
2022/06/14 09:25:40;;;;;;;;;;;;;;;21.84;82.76;96997.11;611278;232;65102;-75
2022/06/14 09:28:13;;;;;;;;;;;;;;;21.84;82.65;97004.34;611239;232;65014;-75
2022/06/14 09:30:45;;;;;;;;;;;;;;;21.84;82.62;96994.44;607876;232;67270;-73
2022/06/14 09:33:23;;;;;;;;;;;;;;;21.84;82.63;96997.11;611260;232;62711;-70
2022/06/14 09:36:05;;;;;;;;;;;;;;;21.85;82.47;97003.25;611304;232;66750;-74
2022/06/14 09:38:33;;;;;;;;;;;;;;;21.85;82.44;97009.42;611304;232;66919;-75
2022/06/14 09:41:18;;;;;;;;;;;;;;;21.86;82.34;97005.66;610857;232;65136;-74
2022/06/14 09:43:50;;;;;;;;;;;;;;;21.87;82.42;97006.45;611261;232;65164;-75
2022/06/14 09:46:28;;;;;;;;;;;;;;;21.86;82.59;97011.02;610964;232;66999;-75
2022/06/14 09:49:13;;;;;;;;;;;;;;;21.86;82.71;97005.66;611338;232;65170;-68
2022/06/14 09:51:58;;;;;;;;;;;;;;;21.87;82.71;97009.13;609750;232;67125;-68
2022/06/14 09:54:44;;;;;;;;;;;;;;;21.87;82.78;97019.83;608666;233;66890;-67
2022/06/14 09:57:30;;;;;;;;;;;;;;;21.86;82.82;97021.72;608641;233;65250;-75
2022/06/14 10:00:15;;;;;;;;;;;;;;;21.86;82.85;97013.69;608654;233;64822;-75
2022/06/14 10:02:47;;;;;;;;;;;;;;;21.87;82.79;97011.81;608751;233;67194;-75
2022/06/14 10:05:31;;;;;;;;;;;;;;;21.87;82.81;97017.16;608730;233;65248;-68
2022/06/14 10:08:04;;;;;;;;;;;;;;;21.87;82.90;97015.28;608429;233;64928;-68
2022/06/14 10:10:39;;;;;;;;;;;;;;;21.87;82.90;97017.16;600466;233;66980;-67
2022/06/14 10:13:08;;;;;;;;;;;;;;;21.87;81.54;97019.83;608693;233;65249;-68
2022/06/14 10:15:37;;;;;;;;;;;;;;;21.90;79.44;97021.95;608634;233;67019;-68
2022/06/14 10:18:24;;;;;;;;;;;;;;;21.90;82.28;97021.95;607069;232;66927;-67
2022/06/14 10:21:05;;;;;;;;;;;;;;;21.89;82.64;97020.36;603921;234;65142;-68
2022/06/14 10:23:37;;;;;;;;;;;;;;;21.88;82.56;97029.45;604101;234;67056;-69
2022/06/14 10:29:12;;;;;;;;;;;;;;;21.87;82.22;97034.00;604162;235;65113;-69
2022/06/14 10:31:57;;;;;;;;;;;;;;;21.87;82.13;97020.63;604174;235;67077;-68
2022/06/14 10:34:42;;;;;;;;;;;;;;;21.87;82.08;97027.86;603726;234;67239;-69
2022/06/14 10:37:14;;;;;;;;;;;;;;;21.86;81.97;97024.39;604203;235;62960;-68
2022/06/14 10:39:46;;;;;;;;;;;;;;;21.86;81.91;97021.72;603870;234;67123;-68
2022/06/14 10:42:30;;;;;;;;;;;;;;;21.86;81.79;97019.04;604172;235;64849;-68
2022/06/14 10:45:15;;;;;;;;;;;;;;;21.86;81.74;97013.69;604114;235;62818;-70
2022/06/14 10:47:53;;;;;;;;;;;;;;;21.86;81.74;97015.57;604155;235;67009;-70
2022/06/14 10:50:25;;;;;;;;;;;;;;;21.86;81.61;97005.66;603823;234;66955;-68
2022/06/14 10:52:54;;;;;;;;;;;;;;;21.86;81.55;97002.98;604203;235;65207;-69
2022/06/14 10:55:29;;;;;;;;;;;;;;;21.86;81.53;97005.66;604155;234;66746;-69
2022/06/14 10:58:14;;;;;;;;;;;;;;;21.86;81.50;97000.31;603810;234;66937;-67
2022/06/14 11:00:46;;;;;;;;;;;;;;;21.86;81.38;96997.64;604183;235;65086;-67
2022/06/14 11:03:18;;;;;;;;;;;;;;;21.87;81.48;96988.52;604118;234;67327;-68
2022/06/14 11:05:59;;;;;;;;;;;;;;;21.88;81.63;96991.99;604143;235;64929;-69
2022/06/14 11:08:45;;;;;;;;;;;;;;;21.87;81.71;96985.84;603818;234;62960;-67
2022/06/14 11:11:14;;;;;;;;;;;;;;;21.89;81.77;96990.94;604098;235;67079;-68
2022/06/14 11:13:49;;;;;;;;;;;;;;;21.89;81.80;96982.91;604135;235;66933;-69
2022/06/14 11:16:24;;;;;;;;;;;;;;;21.89;81.77;96982.91;604036;234;65091;-69
2022/06/14 11:19:45;;;;;;;;;;;;;;;21.88;81.80;96982.12;606826;233;64819;-70
2022/06/14 11:22:00;;;;;;;;;;;;;;;21.90;81.79;96989.84;604956;233;66844;-69
2022/06/14 11:24:29;;;;;;;;;;;;;;;21.89;81.74;96978.35;608321;233;66074;-69
2022/06/14 11:27:06;;;;;;;;;;;;;;;21.89;81.80;96975.67;608212;233;53429;-69
2022/06/14 11:29:52;;;;;;;;;;;;;;;21.89;81.84;96983.70;608303;233;67016;-69
2022/06/14 11:32:27;;;;;;;;;;;;;;;21.90;81.82;96976.47;608346;233;65167;-69
2022/06/14 11:34:59;;;;;;;;;;;;;;;21.89;81.78;96964.97;608447;233;64936;-69
2022/06/14 11:37:37;;;;;;;;;;;;;;;21.90;81.81;96958.53;608303;233;64877;-69
2022/06/14 11:40:23;;;;;;;;;;;;;;;21.90;81.82;96965.77;608293;233;65148;-69
2022/06/14 11:42:54;;;;;;;;;;;;;;;21.90;81.76;96958.53;608709;233;64852;-69
2022/06/14 11:45:38;;;;;;;;;;;;;;;21.90;81.77;96966.56;608366;233;65702;-68
2022/06/14 11:48:17;;;;;;;;;;;;;;;21.91;81.76;96948.66;608475;233;63047;-69
2022/06/14 11:51:02;;;;;;;;;;;;;;;21.90;81.75;96952.39;608679;233;66805;-69
2022/06/14 11:53:49;;;;;;;;;;;;;;;21.91;81.75;96951.34;608608;233;67391;-69
2022/06/14 11:56:27;;;;;;;;;;;;;;;21.91;81.72;96951.34;608240;233;65169;-69
2022/06/14 11:59:14;;;;;;;;;;;;;;;21.90;81.75;96953.19;608612;233;64862;-69
2022/06/14 12:01:59;;;;;;;;;;;;;;;21.90;81.72;96937.13;608656;233;64949;-70
2022/06/14 12:04:45;;;;;;;;;;;;;;;21.90;81.72;96934.45;608693;231;65089;-71
2022/06/14 12:07:30;;;;;;;;;;;;;;;21.90;81.73;96937.13;612274;231;68071;-73
2022/06/14 12:10:03;;;;;;;;;;;;;;;21.91;81.71;96932.60;612406;231;66895;-75
2022/06/14 12:12:32;;;;;;;;;;;;;;;21.91;81.77;96946.77;612447;231;65109;-72
2022/06/14 12:15:06;;;;;;;;;;;;;;;21.91;81.72;96943.31;612335;231;66798;-73
2022/06/14 12:17:42;;;;;;;;;;;;;;;21.90;81.67;96937.13;612147;231;67132;-76
2022/06/14 12:20:11;;;;;;;;;;;;;;;21.91;81.85;96936.08;609974;232;66011;-75
2022/06/14 12:22:56;;;;;;;;;;;;;;;21.92;81.72;96934.98;609911;232;67302;-75
2022/06/14 12:28:21;;;;;;;;;;;;;;;21.93;81.81;96925.08;609266;232;65156;-75
2022/06/14 12:30:50;;;;;;;;;;;;;;;21.92;81.76;96932.31;609929;232;67049;-75
2022/06/14 12:33:19;;;;;;;;;;;;;;;21.92;81.82;96926.16;609917;232;67083;-75
2022/06/14 12:36:00;;;;;;;;;;;;;;;21.92;81.77;96931.52;609641;232;62667;-75
2022/06/14 12:38:29;;;;;;;;;;;;;;;21.94;81.77;96935.52;609897;232;67059;-73
2022/06/14 12:41:04;;;;;;;;;;;;;;;21.93;81.73;96930.42;609807;232;67055;-74
2022/06/14 12:43:33;;;;;;;;;;;;;;;21.93;81.76;96931.25;609726;232;64969;-69
2022/06/14 12:46:05;;;;;;;;;;;;;;;21.93;81.75;96931.25;609563;232;67265;-69
2022/06/14 12:48:38;;;;;;;;;;;;;;;21.94;81.67;96945.42;609850;232;66886;-69
2022/06/14 12:51:13;;;;;;;;;;;;;;;21.94;81.69;96942.75;609852;232;64936;-69
2022/06/14 12:53:45;;;;;;;;;;;;;;;21.93;81.67;96941.95;609912;232;72519;-69
2022/06/14 12:56:15;;;;;;;;;;;;;;;21.94;81.69;96938.19;608587;232;67882;-69
2022/06/14 12:58:47;;;;;;;;;;;;;;;21.95;81.69;96938.98;609514;232;64937;-69
2022/06/14 13:01:25;;;;;;;;;;;;;;;21.94;81.72;96938.19;609825;232;67168;-69
2022/06/14 13:03:57;;;;;;;;;;;;;;;21.94;81.75;96946.22;609475;232;64267;-68
2022/06/14 13:06:29;;;;;;;;;;;;;;;21.94;81.71;96940.07;609935;232;66171;-67
2022/06/14 13:09:01;;;;;;;;;;;;;;;21.95;81.72;96944.33;610015;232;64673;-68
2022/06/14 13:11:33;;;;;;;;;;;;;;;21.94;81.71;96938.19;609764;232;67001;-69
2022/06/14 13:14:14;;;;;;;;;;;;;;;21.94;81.76;96927.48;609886;232;64899;-68
2022/06/14 13:16:55;;;;;;;;;;;;;;;21.95;81.67;96938.98;609480;232;66782;-69
2022/06/14 13:19:24;;;;;;;;;;;;;;;21.95;81.64;96939.78;609499;232;66648;-67
2022/06/14 13:22:02;;;;;;;;;;;;;;;21.95;81.68;96949.69;608934;232;64888;-69
2022/06/14 13:24:46;;;;;;;;;;;;;;;21.95;81.63;96947.01;609619;232;66819;-67
2022/06/14 13:27:32;;;;;;;;;;;;;;;21.96;81.64;96951.27;609458;232;64852;-67
2022/06/14 13:30:12;;;;;;;;;;;;;;;21.97;81.67;96962.80;609575;232;44476;-67
2022/06/14 13:32:47;;;;;;;;;;;;;;;21.97;81.66;96946.74;609674;232;66900;-68